• Join FlightAware (Why Join?)
  • Login
  • US Flag 
05:54AM EST


 

Airport Tracker/Info


-or-


 

Live Flight TrackerFlight Track Log ✈ UPS1131 ✈ 20-Jun-2013 ✈ KBUF - KPHL

Flight Track Log - Related Links

Times and Time Zones

All times are in EDT time to prevent confusion due to time zone crossing. See the UPS1131 flight status page for this flight to view local times or setup timezone preferences in your user account.

Time Position Orientation Groundspeed Altitude Reporting Facility
EDT Latitude Longitude Course Direction KTS MPH feet Rate Location/Type
11:25PM 42.9590 -78.7050 60° Northeast 182 209 1,700  Level FlightAware
11:25PM 42.9830 -78.6710 46° Northeast 225 259 3,000 2,400 Climbing FlightAware
11:26PM 42.9890 -78.6490 70° East 241 277 3,800 3,540 Climbing FlightAware
11:26PM 42.9840 -78.6250 106° East 252 290 4,600 2,580 Climbing FlightAware
11:26PM 42.9770 -78.6120 126° Southeast 256 295 5,100 3,600 Climbing FlightAware
11:26PM 42.9570 -78.5960 150° Southeast 252 290 6,400 3,840 Climbing FlightAware
11:27PM 42.9440 -78.5930 170° South 258 297 6,900 3,120 Climbing FlightAware
11:27PM 42.9070 -78.6030 191° South 274 315 8,600 3,120 Climbing FlightAware
11:27PM 42.8920 -78.6080 194° South 283 326 9,100 2,640 Climbing FlightAware
11:28PM 42.8410 -78.6120 183° South 309 356 10,800 2,220 Climbing FlightAware
11:29PM 42.7660 -78.6140 181° South 364 419 12,300 2,460 Climbing FlightAware
11:30PM 42.6700 -78.6070 177° South 388 447 15,000 2,100 Climbing FlightAware
11:30PM 42.5940 -78.5820 166° South 410 472 15,700 1,620 Climbing FlightAware
11:31PM 42.5150 -78.5520 164° South 412 474 17,400 2,400 Climbing FlightAware
11:32PM 42.4420 -78.5270 166° South 422 486 19,100 2,520 Climbing FlightAware
11:32PM 42.3600 -78.4980 165° South 433 498 20,900 2,400 Climbing FlightAware
11:33PM 42.2960 -78.4580 155° Southeast 447 514 22,300 2,340 Climbing FlightAware
11:34PM 42.2270 -78.3750 138° Southeast 452 520 24,200 1,860 Climbing FlightAware
11:34PM 42.1640 -78.2940 136° Southeast 486 559 25,000 1,500 Climbing FlightAware
11:35PM 42.1010 -78.2130 136° Southeast 506 582 26,100 1,440 Climbing FlightAware
11:36PM 42.0220 -78.1120 136° Southeast 509 586 27,000 600 Climbing FlightAware
11:37PM 41.9530 -78.0240 137° Southeast 504 580 27,000  Level FlightAware
11:37PM 41.8840 -77.9380 137° Southeast 500 575 27,000  Level FlightAware
11:38PM 41.8160 -77.8520 137° Southeast 499 574 27,000  Level FlightAware
11:39PM 41.7420 -77.7580 137° Southeast 497 572 27,000  Level FlightAware
11:39PM 41.6610 -77.6570 137° Southeast 496 571 27,000  Level FlightAware
11:40PM 41.5560 -77.5250 137° Southeast 497 572 27,000  Level FlightAware
11:41PM 41.4900 -77.4430 137° Southeast 499 574 27,000  Level FlightAware
11:42PM 41.4150 -77.3500 137° Southeast 500 575 27,000  Level FlightAware
11:43PM 41.3340 -77.2500 137° Southeast 502 578 27,000  Level FlightAware
11:43PM 41.2660 -77.1660 137° Southeast 502 578 27,000  Level FlightAware
11:43PM 41.2456 -77.1411 137° Southeast 502 578 27,000  Level FlightAware ADS-B
11:44PM 41.1888 -77.0712 137° Southeast 501 577 27,000  Level FlightAware ADS-B
11:45PM 41.1339 -77.0041 137° Southeast 502 578 27,000  Level FlightAware ADS-B
11:45PM 41.0816 -76.9403 137° Southeast 503 579 27,000  Level FlightAware ADS-B
11:46PM 41.0286 -76.8756 137° Southeast 502 578 27,000  Level FlightAware ADS-B
11:46PM 40.9765 -76.8123 137° Southeast 504 580 27,000  Level FlightAware ADS-B
11:47PM 40.9199 -76.7436 137° Southeast 504 580 27,000  Level FlightAware ADS-B
11:47PM 40.8634 -76.6752 138° Southeast 505 581 27,000  Level FlightAware ADS-B
11:48PM 40.8106 -76.6114 138° Southeast 506 582 27,000  Level FlightAware ADS-B
11:48PM 40.7580 -76.5480 138° Southeast 506 582 27,000  Level FlightAware ADS-B
11:49PM 40.7054 -76.4847 138° Southeast 508 585 27,000 -840 Level FlightAware ADS-B
11:49PM 40.6515 -76.4200 138° Southeast 505 581 26,200 -2,460 Descending FlightAware ADS-B
11:50PM 40.5999 -76.3580 138° Southeast 493 567 24,500 -3,300 Descending FlightAware ADS-B
11:50PM 40.5475 -76.2954 138° Southeast 486 559 22,800 -3,360 Descending FlightAware ADS-B
11:51PM 40.4977 -76.2361 138° Southeast 476 548 21,100 -3,300 Descending FlightAware ADS-B
11:51PM 40.4487 -76.1779 138° Southeast 464 534 19,500 -3,360 Descending FlightAware ADS-B
11:52PM 40.4010 -76.1212 138° Southeast 458 527 17,700 -3,540 Descending FlightAware ADS-B
11:52PM 40.3543 -76.0660 138° Southeast 447 514 16,000 -3,360 Descending FlightAware ADS-B
11:53PM 40.2920 -75.9921 138° Southeast 433 498 13,800 -3,180 Descending FlightAware ADS-B
11:53PM 40.2479 -75.9398 138° Southeast 417 480 12,300 -3,000 Descending FlightAware ADS-B
11:54PM 40.2062 -75.8910 138° Southeast 404 465 10,800 -2,700 Descending FlightAware ADS-B
11:54PM 40.1774 -75.8577 139° Southeast 397 457 10,000 -2,100 Descending FlightAware ADS-B
11:54PM 40.1702 -75.8487 136° Southeast 399 459 9,900 -1,020 Descending FlightAware ADS-B
11:54PM 40.1618 -75.8370 133° Southeast 401 461 9,800 -480 Descending FlightAware ADS-B
11:55PM 40.1536 -75.8231 128° Southeast 401 461 9,800 -540 Level FlightAware ADS-B
11:55PM 40.1477 -75.8113 123° Southeast 400 460 9,700 -600 Descending FlightAware ADS-B
11:55PM 40.1425 -75.7990 119° Southeast 400 460 9,700  Level FlightAware ADS-B
11:55PM 40.1384 -75.7876 115° Southeast 400 460 9,700  Level FlightAware ADS-B
11:55PM 40.1321 -75.7657 111° Southeast 401 461 9,700  Level FlightAware ADS-B
11:55PM 40.1232 -75.7296 108° East 397 457 9,700  Level FlightAware ADS-B
11:56PM 40.1149 -75.6959 108° East 373 429 9,700  Level FlightAware ADS-B
11:56PM 40.1069 -75.6643 108° East 351 404 9,700  Level FlightAware ADS-B
11:56PM 40.0994 -75.6343 108° East 331 381 9,700  Level FlightAware ADS-B
11:56PM 40.0919 -75.6041 108° East 311 358 9,700  Level FlightAware ADS-B
11:57PM 40.0855 -75.5776 108° East 305 351 9,700  Level FlightAware ADS-B
11:57PM 40.0791 -75.5515 108° East 301 346 9,700  Level FlightAware ADS-B
11:57PM 40.0727 -75.5252 108° East 300 345 9,700  Level FlightAware ADS-B
11:57PM 40.0709 -75.5172 106° East 300 345 9,700 -600 Level FlightAware ADS-B
11:57PM 40.0691 -75.5080 104° East 299 344 9,600 -1,500 Descending FlightAware ADS-B
11:57PM 40.0655 -75.4808 100° East 294 338 9,200 -2,040 Descending FlightAware ADS-B
11:58PM 40.0627 -75.4555 98° East 291 335 8,600 -2,580 Descending FlightAware ADS-B
11:58PM 40.0605 -75.4358 98° East 290 334 8,100 -2,580 Descending FlightAware ADS-B
11:58PM 40.0575 -75.4089 98° East 287 330 7,500 -2,580 Descending FlightAware ADS-B
11:58PM 40.0553 -75.3875 98° East 283 326 6,900 -2,580 Descending FlightAware ADS-B
11:59PM 40.0524 -75.3625 99° East 277 319 6,300 -2,400 Descending FlightAware ADS-B
11:59PM 40.0494 -75.3397 100° East 274 315 5,800 -2,520 Descending FlightAware ADS-B
11:59PM 40.0459 -75.3150 100° East 269 310 5,100 -2,520 Descending FlightAware ADS-B
11:59PM 40.0425 -75.2907 100° East 266 306 4,500 -2,160 Descending FlightAware ADS-B
12:00AM 40.0404 -75.2738 99° East 266 306 4,200 -1,380 Descending FlightAware ADS-B
12:00AM 40.0373 -75.2469 99° East 261 300 3,900 -1,320 Descending FlightAware ADS-B
12:00AM 40.0346 -75.2227 98° East 260 299 3,500 -1,560 Descending FlightAware ADS-B
12:00AM 40.0321 -75.1986 98° East 262 302 3,100 -1,380 Descending FlightAware ADS-B
12:01AM 40.0298 -75.1748 97° East 259 298 2,800 -780 Descending FlightAware ADS-B
12:01AM 40.0278 -75.1517 96° East 247 284 2,700 -240 Descending FlightAware ADS-B
12:01AM 40.0260 -75.1295 96° East 236 272 2,700  Level FlightAware ADS-B
12:01AM 40.0253 -75.1204 96° East 229 264 2,700  Level FlightAware ADS-B
12:01AM 40.0244 -75.1143 101° East 224 258 2,700  Level FlightAware ADS-B
12:01AM 40.0235 -75.1105 107° East 220 253 2,700  Level FlightAware ADS-B
12:01AM 40.0219 -75.1059 114° Southeast 217 250 2,700  Level FlightAware ADS-B
12:01AM 40.0198 -75.1015 122° Southeast 214 246 2,700  Level FlightAware ADS-B
12:02AM 40.0158 -75.0947 128° Southeast 213 245 2,700  Level FlightAware ADS-B
12:02AM 40.0076 -75.0824 131° Southeast 205 236 2,700  Level FlightAware ADS-B
12:02AM 40.0020 -75.0762 140° Southeast 194 223 2,700  Level FlightAware ADS-B
12:02AM 39.9964 -75.0717 148° Southeast 183 211 2,700  Level FlightAware ADS-B
12:02AM 39.9931 -75.0697 155° Southeast 178 205 2,700  Level FlightAware ADS-B
12:02AM 39.9902 -75.0683 160° South 176 203 2,700  Level FlightAware ADS-B
12:02AM 39.9826 -75.0651 162° South 175 201 2,700  Level FlightAware ADS-B
12:03AM 39.9706 -75.0607 164° South 169 194 2,700  Level FlightAware ADS-B
12:03AM 39.9594 -75.0567 165° South 156 180 2,700  Level FlightAware ADS-B
12:03AM 39.9479 -75.0534 168° South 154 177 2,700  Level FlightAware ADS-B
12:03AM 39.9372 -75.0505 168° South 156 180 2,700  Level FlightAware ADS-B
12:04AM 39.9318 -75.0490 168° South 155 178 2,700  Level FlightAware ADS-B
12:04AM 39.9275 -75.0483 173° South 154 177 2,700  Level FlightAware ADS-B
12:04AM 39.9197 -75.0478 177° South 153 176 2,700  Level FlightAware ADS-B
12:04AM 39.9148 -75.0478 180° South 153 176 2,700  Level FlightAware ADS-B
12:04AM 39.9127 -75.0482 188° South 153 176 2,700  Level FlightAware ADS-B
12:04AM 39.9101 -75.0491 195° South 151 174 2,700  Level FlightAware ADS-B
12:04AM 39.9063 -75.0527 216° Southwest 148 170 2,700 -480 Level FlightAware ADS-B
12:04AM 39.9038 -75.0582 239° Southwest 155 178 2,600 -600 Descending FlightAware ADS-B
12:04AM 39.9029 -75.0610 247° West 157 181 2,600 -1,020 Level FlightAware ADS-B
12:04AM 39.9013 -75.0692 256° West 160 184 2,400 -1,020 Descending FlightAware ADS-B
12:05AM 39.9001 -75.0777 260° West 161 185 2,300 -1,020 Descending FlightAware ADS-B
12:05AM 39.8996 -75.0807 258° West 160 184 2,200 -960 Descending FlightAware ADS-B
12:05AM 39.8964 -75.0954 254° West 160 184 2,000 -780 Descending FlightAware ADS-B
12:05AM 39.8937 -75.1096 256° West 151 174 1,800 -840 Descending FlightAware ADS-B
12:05AM 39.8915 -75.1210 256° West 144 166 1,600 -840 Descending FlightAware ADS-B
12:06AM 39.8889 -75.1338 255° West 137 158 1,400 -720 Descending FlightAware ADS-B
12:06AM 39.8871 -75.1425 255° West 132 152 1,300 -600 Descending FlightAware ADS-B
12:06AM 39.8857 -75.1498 256° West 128 147 1,200 -840 Descending FlightAware ADS-B
12:06AM 39.8839 -75.1591 256° West 120 138 1,000 -720 Descending FlightAware ADS-B
12:06AM 39.8833 -75.1626 257° West 116 133 1,000 -720 Level FlightAware ADS-B
12:06AM 39.8828 -75.1649 254° West 114 131 900 -1,020 Descending FlightAware ADS-B
12:06AM 39.8825 -75.1669 259° West 112 129 900 -660 Level FlightAware ADS-B
12:07AM 39.8804 -75.1774 255° West 110 127 700 -660 Descending FlightAware ADS-B
12:07AM 39.8789 -75.1848 255° West 111 128 600 -600 Descending FlightAware ADS-B
12:07AM 39.8776 -75.1909 254° West 110 127 500 -360 Descending FlightAware ADS-B
12:07AM 39.8766 -75.1959 255° West 112 129 500 -720 Level FlightAware ADS-B
12:07AM 39.8753 -75.2024 255° West 110 127 300 -720 Descending FlightAware ADS-B
12:08AM 39.8731 -75.2134 255° West 112 129 200 -360 Descending FlightAware ADS-B
12:15AM 39.8667 -75.2333 233° Southwest  Level FlightAware Approximate
12:16AM 39.8722 -75.2409 233° Southwest  Level Estimated